Time;durP1;ratioP1;P1;durP2;ratioP2;P2;SDS_P1;SDS_P2;PMS_P1;PMS_P2;Temp;Humidity;BMP_temperature;BMP_pressure;BME280_temperature;BME280_humidity;BME280_pressure;Samples;Min_cycle;Max_cycle;Signal;HPM_P1;HPM_P2
2022/12/25 00:03:15;;;;;;;0.00;0.00;;;;;;;3.31;100.00;101412.63;10377769;28;20030;-77
2022/12/25 00:08:15;;;;;;;0.00;0.00;;;;;;;3.37;100.00;101406.09;10396777;28;20464;-77
2022/12/25 00:13:16;;;;;;;0.00;0.00;;;;;;;3.27;100.00;101412.91;10375103;28;20018;-77
2022/12/25 00:18:16;;;;;;;0.00;0.00;;;;;;;3.27;100.00;101424.28;10377884;28;20570;-77
2022/12/25 00:23:16;;;;;;;0.00;0.00;;;;;;;3.18;100.00;101431.00;10368798;28;20495;-77
2022/12/25 00:28:17;;;;;;;0.00;0.00;;;;;;;3.10;100.00;101435.88;10389577;28;20018;-77
2022/12/25 00:33:17;;;;;;;0.00;0.00;;;;;;;3.07;100.00;101427.34;10406084;28;20536;-76
2022/12/25 00:38:17;;;;;;;0.00;0.00;;;;;;;3.11;100.00;101437.59;10382008;28;20014;-77
2022/12/25 00:43:18;;;;;;;0.00;0.00;;;;;;;3.02;100.00;101424.97;10393722;28;20026;-76
2022/12/25 00:48:18;;;;;;;0.00;0.00;;;;;;;2.98;100.00;101428.75;10410609;28;20174;-77
2022/12/25 00:53:19;;;;;;;0.00;0.00;;;;;;;2.98;100.00;101415.59;10396991;28;20032;-76
2022/12/25 00:58:19;;;;;;;0.00;0.00;;;;;;;2.94;100.00;101411.47;10379623;28;20033;-76
2022/12/25 01:03:19;;;;;;;0.00;0.00;;;;;;;2.77;100.00;101414.31;10409849;28;20369;-77
2022/12/25 01:08:20;;;;;;;0.00;0.00;;;;;;;2.62;100.00;101421.34;10399720;28;20026;-77
2022/12/25 01:13:20;;;;;;;0.00;0.00;;;;;;;2.54;100.00;101428.84;10382158;28;20021;-76
2022/12/25 01:18:22;;;;;;;0.00;0.00;;;;;;;2.48;100.00;101436.16;10380965;28;20101;-77
2022/12/25 01:23:22;;;;;;;0.03;0.03;;;;;;;2.41;100.00;101445.34;10387904;28;20075;-77
2022/12/25 01:28:22;;;;;;;0.00;0.00;;;;;;;2.37;100.00;101456.16;10397392;28;20022;-77
2022/12/25 01:33:23;;;;;;;0.00;0.00;;;;;;;2.35;100.00;101458.84;10397990;28;20018;-77
2022/12/25 01:38:23;;;;;;;0.00;0.00;;;;;;;2.43;100.00;101468.94;10397286;28;20104;-77
2022/12/25 01:43:27;;;;;;;0.00;0.00;;;;;;;2.57;100.00;101481.28;10375738;28;20079;-77
2022/12/25 01:48:32;;;;;;;0.00;0.00;;;;;;;2.74;100.00;101480.28;10378247;28;20071;-77
2022/12/25 01:53:33;;;;;;;0.00;0.00;;;;;;;2.81;100.00;101485.03;10368205;28;20105;-77
2022/12/25 01:58:34;;;;;;;0.00;0.00;;;;;;;2.74;100.00;101490.78;10400450;28;20108;-77
2022/12/25 02:03:35;;;;;;;0.00;0.00;;;;;;;2.56;100.00;101476.94;10391787;28;20267;-77
2022/12/25 02:08:36;;;;;;;0.00;0.00;;;;;;;2.46;100.00;101474.00;10380655;28;20029;-77
2022/12/25 02:13:36;;;;;;;0.00;0.00;;;;;;;2.39;100.00;101477.94;10367051;28;20076;-77
2022/12/25 02:18:50;;;;;;;0.00;0.00;;;;;;;2.36;100.00;101488.66;10383350;28;20458;-77
2022/12/25 02:24:23;;;;;;;0.00;0.00;;;;;;;2.28;100.00;101496.13;10405847;28;20044;-77
2022/12/25 02:30:03;;;;;;;0.00;0.00;;;;;;;2.26;100.00;101494.41;10407250;28;20022;-77
2022/12/25 02:35:14;;;;;;;0.00;0.00;;;;;;;2.26;100.00;101491.78;10400854;28;20513;-77
2022/12/25 02:40:19;;;;;;;0.00;0.00;;;;;;;2.35;100.00;101485.16;10408433;28;20471;-77
2022/12/25 03:06:44;;;;;;;0.00;0.00;;;;;;;2.53;100.00;101467.47;10406290;28;20026;-78
2022/12/25 03:11:49;;;;;;;0.00;0.00;;;;;;;2.54;100.00;101452.53;10398872;28;20032;-78
2022/12/25 03:16:53;;;;;;;0.00;0.00;;;;;;;2.57;100.00;101470.75;10396796;28;20040;-78
2022/12/25 03:27:14;;;;;;;0.00;0.00;;;;;;;2.18;100.00;101470.38;10392302;28;20030;-78
2022/12/25 03:32:38;;;;;;;0.00;0.00;;;;;;;2.09;100.00;101462.16;10375900;28;20018;-79
2022/12/25 04:36:09;;;;;;;0.00;0.00;;;;;;;2.54;100.00;101397.31;10404304;28;20022;-79
2022/12/25 04:41:12;;;;;;;0.00;0.00;;;;;;;2.60;100.00;101392.50;10389198;28;20039;-77
2022/12/25 04:46:12;;;;;;;0.00;0.00;;;;;;;2.67;100.00;101393.81;10407716;28;20041;-77
2022/12/25 04:51:22;;;;;;;0.00;0.00;;;;;;;2.73;100.00;101395.22;10389317;28;20033;-79
2022/12/25 04:56:22;;;;;;;0.00;0.00;;;;;;;2.84;100.00;101395.41;10388506;28;20380;-79
2022/12/25 05:01:22;;;;;;;0.00;0.00;;;;;;;3.00;100.00;101386.56;10387767;28;20064;-79
2022/12/25 05:06:23;;;;;;;0.00;0.00;;;;;;;3.13;100.00;101388.31;10413769;28;20030;-79
2022/12/25 05:11:23;;;;;;;0.00;0.00;;;;;;;3.21;100.00;101387.00;10385401;28;20079;-78
2022/12/25 05:16:25;;;;;;;0.00;0.00;;;;;;;3.24;100.00;101389.44;10391907;28;20013;-79
2022/12/25 05:21:25;;;;;;;0.00;0.00;;;;;;;3.24;100.00;101378.88;10380256;28;20108;-79
2022/12/25 05:26:26;;;;;;;0.00;0.00;;;;;;;3.24;100.00;101382.38;10394043;28;20075;-76
2022/12/25 05:31:26;;;;;;;0.00;0.00;;;;;;;3.18;100.00;101373.06;10405437;28;20025;-79
2022/12/25 05:36:27;;;;;;;0.00;0.00;;;;;;;3.11;100.00;101371.78;10390525;28;20048;-77
2022/12/25 05:41:27;;;;;;;0.00;0.00;;;;;;;3.13;100.00;101363.78;10400556;28;20022;-77
2022/12/25 05:46:27;;;;;;;0.00;0.00;;;;;;;3.17;100.00;101354.72;10418299;28;20083;-76
2022/12/25 05:51:29;;;;;;;0.00;0.00;;;;;;;3.20;100.00;101356.31;10402758;28;20025;-76
2022/12/25 05:56:29;;;;;;;0.00;0.00;;;;;;;3.29;100.00;101342.59;10381225;28;20025;-79
2022/12/25 06:01:30;;;;;;;0.00;0.00;;;;;;;3.37;100.00;101350.81;10382599;28;20432;-79
2022/12/25 06:06:30;;;;;;;0.00;0.00;;;;;;;3.42;100.00;101347.88;10394667;28;20378;-78
2022/12/25 06:11:30;;;;;;;0.00;0.00;;;;;;;3.37;100.00;101363.97;10379202;28;20047;-79
2022/12/25 06:16:31;;;;;;;0.00;0.00;;;;;;;3.27;100.00;101361.09;10378661;28;20017;-77
2022/12/25 06:21:31;;;;;;;0.00;0.00;;;;;;;3.17;100.00;101360.00;10402117;28;20117;-78
2022/12/25 06:26:32;;;;;;;0.00;0.00;;;;;;;3.11;100.00;101371.78;10399734;28;20080;-77
2022/12/25 06:31:32;;;;;;;0.00;0.00;;;;;;;3.04;100.00;101367.84;10394276;28;20114;-77
2022/12/25 06:36:32;;;;;;;0.00;0.00;;;;;;;3.01;100.00;101367.19;10392252;28;20831;-77
2022/12/25 06:41:33;;;;;;;0.00;0.00;;;;;;;3.12;100.00;101368.19;10404714;28;20353;-76
2022/12/25 06:46:33;;;;;;;0.00;0.00;;;;;;;3.25;100.00;101372.66;10378643;28;20060;-77
2022/12/25 06:51:33;;;;;;;0.00;0.00;;;;;;;3.39;100.00;101364.72;10400634;28;20037;-77
2022/12/25 06:56:34;;;;;;;0.00;0.00;;;;;;;3.53;100.00;101380.47;10395825;28;20427;-79
2022/12/25 07:02:04;;;;;;;0.00;0.00;;;;;;;3.60;100.00;101381.75;10393191;28;20370;-78
2022/12/25 07:07:06;;;;;;;0.00;0.00;;;;;;;3.61;100.00;101390.53;10369722;28;20062;-77
2022/12/25 07:12:22;;;;;;;0.00;0.00;;;;;;;3.67;100.00;101405.09;10381699;28;20037;-78
2022/12/25 07:17:23;;;;;;;0.00;0.00;;;;;;;3.76;100.00;101404.47;10384335;28;20018;-76
2022/12/25 07:22:23;;;;;;;0.00;0.00;;;;;;;3.88;100.00;101393.13;10390378;28;20018;-78
2022/12/25 07:27:23;;;;;;;0.00;0.00;;;;;;;4.00;100.00;101391.47;10406922;28;20113;-78
2022/12/25 07:32:24;;;;;;;0.00;0.00;;;;;;;4.12;100.00;101393.25;10402618;28;20104;-78
2022/12/25 07:37:24;;;;;;;0.00;0.00;;;;;;;4.20;100.00;101377.78;10411729;28;20263;-78
2022/12/25 07:42:24;;;;;;;0.00;0.00;;;;;;;4.24;100.00;101375.75;10393382;28;20267;-78
2022/12/25 07:47:25;;;;;;;0.00;0.00;;;;;;;4.24;100.00;101373.13;10386477;28;20366;-78
2022/12/25 07:52:25;;;;;;;0.00;0.00;;;;;;;4.27;100.00;101372.91;10403722;28;20104;-78
2022/12/25 07:57:25;;;;;;;0.00;0.00;;;;;;;4.27;100.00;101365.84;10409198;28;20308;-78
2022/12/25 08:02:27;;;;;;;0.00;0.00;;;;;;;4.29;100.00;101368.38;10361491;28;20045;-79
2022/12/25 08:07:27;;;;;;;0.00;0.00;;;;;;;4.29;100.00;101355.22;10386822;28;20026;-79
2022/12/25 08:12:28;;;;;;;0.00;0.00;;;;;;;4.34;100.00;101342.56;10396509;28;20033;-78
2022/12/25 08:17:38;;;;;;;0.00;0.00;;;;;;;4.43;100.00;101344.53;10400066;28;20331;-78
2022/12/25 08:22:39;;;;;;;0.00;0.00;;;;;;;4.48;100.00;101355.63;10395980;28;20021;-77
2022/12/25 08:27:39;;;;;;;0.00;0.00;;;;;;;4.51;100.00;101351.94;10389248;28;20480;-77
2022/12/25 08:32:40;;;;;;;0.00;0.00;;;;;;;4.53;100.00;101342.94;10392705;28;20117;-77
2022/12/25 08:37:40;;;;;;;0.10;0.10;;;;;;;4.58;100.00;101344.44;10396094;28;20074;-76
2022/12/25 08:42:40;;;;;;;0.00;0.00;;;;;;;4.62;100.00;101352.00;10386645;28;20021;-78
2022/12/25 08:47:41;;;;;;;0.10;0.10;;;;;;;4.73;100.00;101354.72;10367567;28;20284;-76
2022/12/25 08:52:41;;;;;;;0.00;0.00;;;;;;;4.82;100.00;101362.97;10388710;22;20405;-76
2022/12/25 08:57:42;;;;;;;0.00;0.00;;;;;;;4.89;100.00;101367.69;10404105;28;20021;-75
2022/12/25 09:02:42;;;;;;;0.00;0.00;;;;;;;4.95;100.00;101372.53;10425730;28;20025;-76
2022/12/25 09:07:42;;;;;;;0.00;0.00;;;;;;;5.01;100.00;101373.91;10428101;28;20018;-76
2022/12/25 09:12:42;;;;;;;0.00;0.00;;;;;;;5.03;100.00;101356.13;10436224;28;20025;-75
2022/12/25 09:17:43;;;;;;;0.00;0.00;;;;;;;5.11;100.00;101360.88;10446978;28;20058;-77
2022/12/25 09:22:43;;;;;;;0.00;0.00;;;;;;;5.19;100.00;101371.72;10435075;28;20343;-77
2022/12/25 09:27:44;;;;;;;0.00;0.00;;;;;;;5.29;100.00;101369.25;10449010;28;20110;-76
2022/12/25 09:32:44;;;;;;;0.00;0.00;;;;;;;5.35;100.00;101372.31;10424331;28;20752;-77
2022/12/25 09:37:44;;;;;;;0.00;0.00;;;;;;;5.44;100.00;101365.53;10437976;28;20029;-77
2022/12/25 09:42:47;;;;;;;0.00;0.00;;;;;;;5.52;100.00;101364.94;10425871;28;20025;-77
2022/12/25 09:47:48;;;;;;;0.00;0.00;;;;;;;5.59;100.00;101369.66;10445540;28;20024;-77
2022/12/25 09:52:57;;;;;;;0.10;0.10;;;;;;;5.62;100.00;101366.78;10443126;28;20107;-77
2022/12/25 09:58:01;;;;;;;0.00;0.00;;;;;;;5.69;100.00;101372.47;10424484;28;20013;-77
2022/12/25 10:03:22;;;;;;;0.00;0.00;;;;;;;5.75;100.00;101377.28;10436288;28;20017;-77
2022/12/25 10:09:00;;;;;;;0.00;0.00;;;;;;;5.82;100.00;101382.97;10430272;28;20074;-78
2022/12/25 10:14:24;;;;;;;0.00;0.00;;;;;;;5.86;100.00;101361.47;10429532;28;20096;-78
2022/12/25 10:19:52;;;;;;;0.00;0.00;;;;;;;5.96;100.00;101360.78;10446392;28;20058;-78
2022/12/25 10:24:56;;;;;;;0.00;0.00;;;;;;;6.00;100.00;101351.69;10443708;28;20128;-77
2022/12/25 10:29:57;;;;;;;0.00;0.00;;;;;;;6.04;100.00;101334.63;10447791;28;20076;-79
2022/12/25 10:34:58;;;;;;;0.08;0.08;;;;;;;6.09;100.00;101324.53;10441871;28;20029;-80
2022/12/25 10:39:58;;;;;;;0.00;0.00;;;;;;;6.13;100.00;101318.03;10452908;28;20009;-79
2022/12/25 10:45:02;;;;;;;0.00;0.00;;;;;;;6.17;100.00;101311.56;10443638;28;20025;-79
2022/12/25 10:50:21;;;;;;;0.00;0.00;;;;;;;6.18;100.00;101307.13;10410956;28;20013;-80
2022/12/25 10:55:22;;;;;;;0.00;0.00;;;;;;;6.19;100.00;101306.16;10425840;28;20044;-80
2022/12/25 11:00:26;;;;;;;0.00;0.00;;;;;;;6.18;100.00;101305.31;10445086;28;20031;-80
2022/12/25 11:05:30;;;;;;;0.03;0.03;;;;;;;6.20;100.00;101286.69;10425845;28;20057;-78
2022/12/25 11:10:35;;;;;;;0.10;0.10;;;;;;;6.21;100.00;101275.97;10427606;28;20448;-80
2022/12/25 11:15:38;;;;;;;0.00;0.00;;;;;;;6.23;100.00;101276.69;10431403;28;20036;-80
2022/12/25 11:20:47;;;;;;;0.00;0.00;;;;;;;6.24;100.00;101254.56;10416178;28;20117;-80
2022/12/25 11:26:01;;;;;;;0.00;0.00;;;;;;;6.27;100.00;101259.63;10434073;28;20037;-79
2022/12/25 11:31:08;;;;;;;0.05;0.05;;;;;;;6.27;100.00;101253.47;10446859;28;20065;-79
2022/12/25 11:36:18;;;;;;;0.00;0.00;;;;;;;6.28;100.00;101260.44;10441491;28;20437;-79
2022/12/25 11:41:23;;;;;;;0.10;0.10;;;;;;;6.30;100.00;101261.19;10422281;28;20027;-79
2022/12/25 11:46:41;;;;;;;0.10;0.10;;;;;;;6.31;100.00;101250.50;10440577;28;20508;-79
2022/12/25 11:51:44;;;;;;;0.00;0.00;;;;;;;6.32;100.00;101261.91;10446160;28;20029;-81
2022/12/25 11:56:45;;;;;;;0.10;0.10;;;;;;;6.32;100.00;101246.88;10441612;28;20389;-80
2022/12/25 12:01:57;;;;;;;0.10;0.10;;;;;;;6.37;100.00;101251.81;10433064;28;20021;-80
2022/12/25 12:07:11;;;;;;;0.08;0.08;;;;;;;6.38;100.00;101257.94;10440731;28;20049;-80
2022/12/25 12:12:49;;;;;;;0.00;0.00;;;;;;;6.39;100.00;101254.31;10448274;28;20032;-79
2022/12/25 12:17:49;;;;;;;0.05;0.05;;;;;;;6.40;100.00;101243.63;10425117;28;20017;-80
2022/12/25 12:22:50;;;;;;;0.00;0.00;;;;;;;6.46;100.00;101243.13;10435266;28;20032;-80
2022/12/25 12:27:58;;;;;;;0.10;0.10;;;;;;;6.47;100.00;101230.75;10426922;28;20339;-79
2022/12/25 12:33:03;;;;;;;0.00;0.00;;;;;;;6.47;100.00;101228.94;10414939;28;20030;-78
2022/12/25 12:38:09;;;;;;;0.00;0.00;;;;;;;6.50;100.00;101222.56;10445166;28;20101;-79
2022/12/25 12:43:27;;;;;;;0.10;0.10;;;;;;;6.49;100.00;101197.91;10454605;28;20112;-79
2022/12/25 12:48:29;;;;;;;0.00;0.00;;;;;;;6.51;100.00;101198.59;10440573;28;20033;-79
2022/12/25 12:53:31;;;;;;;0.10;0.10;;;;;;;6.56;100.00;101192.94;10436835;28;20419;-79
2022/12/25 12:58:34;;;;;;;0.00;0.00;;;;;;;6.56;100.00;101177.91;10440189;28;20043;-79
2022/12/25 13:03:59;;;;;;;0.00;0.00;;;;;;;6.57;100.00;101184.03;10404047;28;20411;-80
2022/12/25 13:09:12;;;;;;;0.00;0.00;;;;;;;6.54;100.00;101165.75;10427395;28;20029;-79
2022/12/25 13:14:15;;;;;;;0.00;0.00;;;;;;;6.55;100.00;101164.81;10430322;28;20059;-79
2022/12/25 13:19:20;;;;;;;0.00;0.00;;;;;;;6.55;100.00;101154.22;10443388;28;20512;-79
2022/12/25 13:24:29;;;;;;;0.10;0.10;;;;;;;6.57;100.00;101134.59;10437065;28;20059;-79
2022/12/25 13:29:40;;;;;;;0.03;0.03;;;;;;;6.58;100.00;101124.84;10430386;28;20022;-79
2022/12/25 13:34:41;;;;;;;0.00;0.00;;;;;;;6.63;100.00;101124.47;10445391;28;20032;-79
2022/12/25 13:39:50;;;;;;;0.08;0.08;;;;;;;6.63;100.00;101133.22;10438316;28;20361;-78
2022/12/25 13:45:05;;;;;;;0.00;0.00;;;;;;;6.66;100.00;101126.84;10426586;28;20052;-79
2022/12/25 13:50:18;;;;;;;;;;;;;;;6.67;100.00;101137.31;10436899;28;20120;-79
2022/12/25 13:55:21;;;;;;;0.10;0.10;;;;;;;6.71;100.00;101137.91;10454658;28;19913;-79
2022/12/25 14:00:35;;;;;;;0.10;0.10;;;;;;;6.73;100.00;101122.75;10448095;28;20029;-79
2022/12/25 14:05:37;;;;;;;0.10;0.10;;;;;;;6.73;100.00;101125.41;10428612;28;20053;-79
2022/12/25 14:10:39;;;;;;;0.00;0.00;;;;;;;6.75;100.00;101132.25;10435165;28;20358;-79
2022/12/25 14:15:42;;;;;;;0.00;0.00;;;;;;;6.73;100.00;101135.97;10440649;28;20045;-79
2022/12/25 14:21:20;;;;;;;0.00;0.00;;;;;;;6.70;100.00;101112.41;10442500;28;20018;-79
2022/12/25 14:26:24;;;;;;;0.10;0.10;;;;;;;6.71;100.00;101106.97;10432057;28;20062;-78
2022/12/25 14:31:28;;;;;;;0.00;0.00;;;;;;;6.69;100.00;101093.06;10426125;28;20029;-79
2022/12/25 14:36:29;;;;;;;0.00;0.00;;;;;;;6.69;100.00;101085.09;10434879;28;20018;-79
2022/12/25 14:41:38;;;;;;;0.10;0.10;;;;;;;6.67;100.00;101071.16;10429148;28;20037;-78
2022/12/25 14:46:38;;;;;;;0.10;0.10;;;;;;;6.62;100.00;101078.63;10423856;28;20022;-80
2022/12/25 14:51:38;;;;;;;0.10;0.10;;;;;;;6.63;100.00;101064.41;10436437;28;20075;-78
2022/12/25 14:56:45;;;;;;;0.00;0.00;;;;;;;6.57;100.00;101055.22;10449284;28;20013;-78
2022/12/25 15:01:50;;;;;;;0.10;0.10;;;;;;;6.53;100.00;101066.16;10429970;28;20041;-79
2022/12/25 15:06:53;;;;;;;0.00;0.00;;;;;;;6.52;100.00;101069.78;10442620;28;20070;-80
2022/12/25 15:11:54;;;;;;;0.03;0.03;;;;;;;6.53;100.00;101074.09;10422475;28;20025;-79
2022/12/25 15:16:58;;;;;;;0.00;0.00;;;;;;;6.52;100.00;101056.56;10445892;28;20037;-80
2022/12/25 15:21:58;;;;;;;0.00;0.00;;;;;;;6.49;100.00;101052.34;10448096;28;20104;-79
2022/12/25 15:26:59;;;;;;;0.00;0.00;;;;;;;6.49;100.00;101046.22;10434833;28;20536;-79
2022/12/25 15:31:59;;;;;;;0.10;0.10;;;;;;;6.49;100.00;101035.63;10447140;28;20625;-81
2022/12/25 15:36:59;;;;;;;0.10;0.10;;;;;;;6.50;100.00;101030.19;10437993;28;20108;-80
2022/12/25 15:42:12;;;;;;;0.00;0.00;;;;;;;6.51;100.00;101028.38;10459762;28;20099;-80
2022/12/25 15:47:14;;;;;;;0.00;0.00;;;;;;;6.54;100.00;101030.78;10451676;28;20108;-80
2022/12/25 15:52:16;;;;;;;0.00;0.00;;;;;;;6.53;100.00;101023.81;10428668;28;20052;-81
2022/12/25 15:57:19;;;;;;;0.00;0.00;;;;;;;6.52;100.00;101017.69;10430828;28;20108;-79
2022/12/25 16:02:19;;;;;;;0.00;0.00;;;;;;;6.50;100.00;101006.38;10442426;28;20025;-81
2022/12/25 16:07:22;;;;;;;0.00;0.00;;;;;;;6.50;100.00;101010.84;10435382;28;20380;-81
2022/12/25 16:12:22;;;;;;;0.00;0.00;;;;;;;6.48;100.00;101021.53;10438889;28;20047;-80
2022/12/25 16:17:22;;;;;;;0.10;0.10;;;;;;;6.45;100.00;101007.72;10431888;28;20147;-81
2022/12/25 16:22:27;;;;;;;0.00;0.00;;;;;;;6.42;100.00;101000.88;10443710;28;20021;-79
2022/12/25 16:27:27;;;;;;;0.10;0.10;;;;;;;6.39;100.00;100995.84;10418682;28;20067;-78
2022/12/25 16:32:28;;;;;;;0.00;0.00;;;;;;;6.39;100.00;100989.72;10427545;28;20025;-80
2022/12/25 16:37:28;;;;;;;0.10;0.10;;;;;;;6.38;100.00;100988.06;10437998;28;20017;-80
2022/12/25 16:42:28;;;;;;;0.00;0.00;;;;;;;6.33;100.00;100978.69;10409545;28;20583;-80
2022/12/25 16:47:29;;;;;;;0.10;0.10;;;;;;;6.32;100.00;100970.88;10447984;28;20411;-79
2022/12/25 16:52:32;;;;;;;0.00;0.00;;;;;;;6.28;100.00;100956.22;10435581;28;20030;-80
2022/12/25 16:57:33;;;;;;;0.00;0.00;;;;;;;6.19;100.00;100954.34;10438944;28;20263;-80
2022/12/25 17:02:33;;;;;;;0.00;0.00;;;;;;;6.15;100.00;100950.28;10430551;28;20021;-80
2022/12/25 17:07:35;;;;;;;0.05;0.05;;;;;;;6.11;100.00;100936.50;10438415;28;20025;-80
2022/12/25 17:12:35;;;;;;;0.10;0.10;;;;;;;6.07;100.00;100933.22;10430385;28;20116;-80
2022/12/25 17:17:36;;;;;;;0.10;0.10;;;;;;;6.04;100.00;100930.84;10431963;28;20540;-79
2022/12/25 17:22:36;;;;;;;0.00;0.00;;;;;;;6.00;100.00;100928.59;10430290;28;20025;-80
2022/12/25 17:27:36;;;;;;;0.10;0.10;;;;;;;5.99;100.00;100929.56;10441524;28;20295;-80
2022/12/25 17:32:37;;;;;;;0.00;0.00;;;;;;;5.92;100.00;100918.63;10438722;28;20096;-80
2022/12/25 17:37:37;;;;;;;0.00;0.00;;;;;;;5.88;100.00;100914.56;10429392;28;20016;-80
2022/12/25 17:42:38;;;;;;;0.10;0.10;;;;;;;5.86;100.00;100905.91;10412097;28;20129;-81
2022/12/25 17:47:38;;;;;;;0.00;0.00;;;;;;;5.86;100.00;100909.38;10435612;28;20067;-80
2022/12/25 17:52:38;;;;;;;0.10;0.10;;;;;;;5.83;100.00;100907.00;10438385;28;20746;-81
2022/12/25 17:57:39;;;;;;;0.00;0.00;;;;;;;5.79;100.00;100892.38;10431321;28;20447;-81
2022/12/25 18:02:42;;;;;;;0.10;0.10;;;;;;;5.76;100.00;100886.47;10449389;28;20071;-81
2022/12/25 18:07:43;;;;;;;0.00;0.00;;;;;;;5.75;100.00;100874.22;10434565;28;20436;-80
2022/12/25 18:12:44;;;;;;;0.00;0.00;;;;;;;5.71;100.00;100875.47;10407248;28;20112;-81
2022/12/25 18:17:44;;;;;;;0.10;0.10;;;;;;;5.67;100.00;100877.50;10417532;28;20024;-81
2022/12/25 18:22:44;;;;;;;0.03;0.03;;;;;;;5.62;100.00;100862.03;10418350;28;20032;-81
2022/12/25 18:27:45;;;;;;;0.00;0.00;;;;;;;5.61;100.00;100864.78;10439440;28;20013;-80
2022/12/25 18:32:45;;;;;;;0.00;0.00;;;;;;;5.60;100.00;100858.66;10447801;28;20021;-80
2022/12/25 18:37:47;;;;;;;0.10;0.10;;;;;;;5.59;100.00;100851.72;10447533;28;20021;-81
2022/12/25 18:42:50;;;;;;;0.00;0.00;;;;;;;5.59;100.00;100850.88;10444314;28;20029;-80
2022/12/25 18:47:50;;;;;;;0.00;0.00;;;;;;;5.58;100.00;100838.63;10441262;28;20400;-80
2022/12/25 18:52:50;;;;;;;0.00;0.00;;;;;;;5.57;100.00;100839.59;10425931;28;20021;-81
2022/12/25 18:57:51;;;;;;;0.00;0.00;;;;;;;5.55;100.00;100833.59;10420259;28;20025;-81
2022/12/25 19:02:55;;;;;;;0.00;0.00;;;;;;;5.53;100.00;100827.63;10418605;28;20401;-81
2022/12/25 19:07:55;;;;;;;0.10;0.10;;;;;;;5.50;100.00;100804.06;10436629;28;20017;-81
2022/12/25 19:12:55;;;;;;;0.00;0.00;;;;;;;5.50;100.00;100806.69;10422452;28;20029;-81
2022/12/25 19:17:56;;;;;;;0.00;0.00;;;;;;;5.47;100.00;100805.19;10435238;28;20022;-80
2022/12/25 19:22:56;;;;;;;0.00;0.00;;;;;;;5.44;100.00;100811.56;10413314;28;20025;-80
2022/12/25 19:27:56;;;;;;;0.00;0.00;;;;;;;5.41;100.00;100801.25;10449045;28;20029;-81
2022/12/25 19:32:57;;;;;;;0.00;0.00;;;;;;;5.40;100.00;100791.63;10405255;28;20033;-81
2022/12/25 19:37:57;;;;;;;0.00;0.00;;;;;;;5.38;100.00;100780.38;10425021;28;20009;-81
2022/12/25 19:42:57;;;;;;;0.10;0.10;;;;;;;5.39;100.00;100775.91;10413452;28;20492;-81
2022/12/25 19:47:58;;;;;;;0.00;0.00;;;;;;;5.37;100.00;100764.63;10439695;28;20029;-81
2022/12/25 19:52:58;;;;;;;0.10;0.10;;;;;;;5.35;100.00;100761.25;10434198;28;20468;-81
2022/12/25 19:57:58;;;;;;;0.00;0.00;;;;;;;5.32;100.00;100762.34;10433259;28;20021;-80
2022/12/25 20:03:00;;;;;;;0.00;0.00;;;;;;;5.35;100.00;100755.97;10427246;28;20467;-80
2022/12/25 20:08:00;;;;;;;0.00;0.00;;;;;;;5.30;100.00;100732.59;10428715;28;20119;-80
2022/12/25 20:13:00;;;;;;;0.00;0.00;;;;;;;5.28;100.00;100747.75;10438199;28;20064;-80
2022/12/25 20:18:01;;;;;;;0.10;0.10;;;;;;;5.27;100.00;100756.63;10432106;28;20255;-80
2022/12/25 20:23:02;;;;;;;0.10;0.10;;;;;;;5.34;100.00;100757.78;10417912;28;20559;-80
2022/12/25 20:28:02;;;;;;;0.10;0.10;;;;;;;5.39;100.00;100760.06;10421212;28;20029;-80
2022/12/25 20:33:03;;;;;;;0.00;0.00;;;;;;;5.44;100.00;100761.34;10410808;28;20255;-80
2022/12/25 20:38:03;;;;;;;0.00;0.00;;;;;;;5.44;100.00;100756.06;10414493;28;20096;-80
2022/12/25 20:43:03;;;;;;;0.07;0.07;;;;;;;5.47;100.00;100757.63;10429857;28;20730;-81
2022/12/25 20:48:04;;;;;;;0.00;0.00;;;;;;;5.53;100.00;100757.13;10425275;28;20341;-80
2022/12/25 20:53:04;;;;;;;0.00;0.00;;;;;;;5.56;100.00;100762.13;10419632;28;20037;-80
2022/12/25 20:58:05;;;;;;;0.10;0.10;;;;;;;5.55;100.00;100759.59;10412247;28;20042;-81
2022/12/25 21:03:06;;;;;;;0.10;0.10;;;;;;;5.56;100.00;100756.84;10456536;28;20421;-80
2022/12/25 21:08:06;;;;;;;0.10;0.10;;;;;;;5.55;100.00;100739.31;10443193;28;20494;-80
2022/12/25 21:13:07;;;;;;;0.00;0.00;;;;;;;5.55;100.00;100733.19;10450968;28;20498;-80
2022/12/25 21:18:07;;;;;;;0.10;0.10;;;;;;;5.57;100.00;100762.97;10420879;28;20031;-80
2022/12/25 21:23:07;;;;;;;0.10;0.10;;;;;;;5.54;100.00;100757.94;10419295;28;20384;-80
2022/12/25 21:28:08;;;;;;;0.10;0.10;;;;;;;5.55;100.00;100756.97;10408887;28;20020;-81
2022/12/25 21:38:31;;;;;;;0.10;0.10;;;;;;;5.55;100.00;100764.91;10419585;28;20021;-81
2022/12/25 21:43:33;;;;;;;0.00;0.00;;;;;;;5.57;100.00;100758.53;10420554;28;20424;-80
2022/12/25 21:48:35;;;;;;;0.10;0.10;;;;;;;5.57;100.00;100745.31;10419819;28;20037;-80
2022/12/25 21:53:35;;;;;;;0.10;0.10;;;;;;;5.57;100.00;100744.47;10433378;28;20057;-80
2022/12/25 21:58:35;;;;;;;0.10;0.10;;;;;;;5.52;100.00;100729.00;10452552;28;20096;-80
2022/12/25 22:03:36;;;;;;;0.00;0.00;;;;;;;5.53;100.00;100729.88;10458645;28;20308;-80
2022/12/25 22:08:36;;;;;;;0.00;0.00;;;;;;;5.50;100.00;100724.81;10435135;28;20026;-80
2022/12/25 22:24:14;;;;;;;0.00;0.00;;;;;;;5.52;100.00;100726.34;10418526;28;20432;-80
2022/12/25 22:29:14;;;;;;;0.00;0.00;;;;;;;5.51;100.00;100723.84;10445904;28;20032;-80
2022/12/25 22:34:15;;;;;;;0.10;0.10;;;;;;;5.52;100.00;100728.16;10442651;28;20031;-80
2022/12/25 22:39:15;;;;;;;0.00;0.00;;;;;;;5.51;100.00;100731.78;10450993;28;20017;-80
2022/12/25 22:44:15;;;;;;;0.00;0.00;;;;;;;5.50;100.00;100725.66;10417201;28;20025;-80
2022/12/25 22:49:17;;;;;;;0.10;0.10;;;;;;;5.47;100.00;100731.22;10423106;28;20028;-80
2022/12/25 22:54:18;;;;;;;0.00;0.00;;;;;;;5.45;100.00;100731.31;10397527;28;20590;-80
2022/12/25 22:59:21;;;;;;;0.10;0.10;;;;;;;5.41;100.00;100732.56;10432816;28;20496;-80
2022/12/25 23:04:22;;;;;;;0.00;0.00;;;;;;;5.39;100.00;100737.13;10415825;28;20017;-80
2022/12/25 23:09:26;;;;;;;0.10;0.10;;;;;;;5.42;100.00;100738.69;10427032;28;20453;-80
2022/12/25 23:14:38;;;;;;;0.00;0.00;;;;;;;5.40;100.00;100727.38;10428755;28;20022;-80
2022/12/25 23:30:17;;;;;;;0.00;0.00;;;;;;;5.38;100.00;100738.09;10415193;28;20357;-80
2022/12/25 23:35:17;;;;;;;0.10;0.10;;;;;;;5.39;100.00;100733.66;10414554;28;20476;-80
2022/12/25 23:40:20;;;;;;;0.00;0.00;;;;;;;5.39;100.00;100734.47;10428720;28;20041;-80
2022/12/25 23:45:20;;;;;;;0.00;0.00;;;;;;;5.34;100.00;100727.91;10439459;28;20751;-80
2022/12/25 23:50:21;;;;;;;0.00;0.00;;;;;;;5.36;100.00;100726.81;10412932;28;20029;-80
2022/12/25 23:55:21;;;;;;;0.00;0.00;;;;;;;5.36;100.00;100718.88;10391013;28;20029;-80
